This is the latest recevied weather packets stored in our database for station/object LRSV. If no packets are shown the sender has not sent any weather packets the latest 10 day(s).
| Time | Temp. | Humidity | Pressure | Rain* | Wind** | Luminosity | Snow |
|---|---|---|---|---|---|---|---|
| 1777448000 | 7.22° C | 39% | 1021 hPa | - | - | - | - |
| 1777447100 | 7.22° C | 39% | 1021 hPa | - | - | - | - |
| 1777446200 | 7.22° C | 39% | 1021 hPa | - | - | - | - |
| 1777445300 | 7.22° C | 39% | 1021 hPa | - | - | - | - |
| 1777444401 | 7.22° C | 39% | 1021 hPa | - | - | - | - |
| 1777443500 | 6.11° C | 42% | 1021 hPa | - | - | - | - |
| 1777442600 | 6.11° C | 42% | 1021 hPa | - | - | - | - |
| 1777441700 | 6.11° C | 46% | 1021 hPa | - | - | - | - |
| 1777440811 | 6.11° C | 46% | 1021 hPa | - | - | - | - |
| 1777439900 | 5° C | 49% | 1021 hPa | - | - | - | - |
| 1777439000 | 5° C | 49% | 1021 hPa | - | - | - | - |
| 1777438100 | 5° C | 49% | 1021 hPa | - | - | - | - |
| 1777437200 | 5° C | 49% | 1021 hPa | - | - | - | - |
| 1777436301 | 2.78° C | 52% | 1021 hPa | - | - | - | - |
| 1777435400 | 2.78° C | 52% | 1021 hPa | - | - | - | - |
| 1777434500 | 3.89° C | 48% | 1021 hPa | - | - | - | - |
| 1777433600 | 3.89° C | 48% | 1021 hPa | - | - | - | - |
| 1777432705 | 3.89° C | 48% | 1020 hPa | - | - | - | - |
| 1777431800 | 3.89° C | 48% | 1020 hPa | - | - | - | - |
| 1777430000 | 3.89° C | 52% | 1020 hPa | - | - | - | - |
| 1777424601 | 3.89° C | 52% | 1021 hPa | - | - | - | - |
| 1777422800 | 5° C | 45% | 1021 hPa | - | - | - | - |
| 1777419200 | 6.11° C | 39% | 1021 hPa | - | - | - | - |
| 1777410200 | 7.22° C | 39% | 1021 hPa | - | - | - | - |
| 1777409341 | 7.78° C | 37% | 1020 hPa | - | - | - | - |
* Rain since midnight (hover to see other rain measurements)
** Current wind speed in m/s (hover to see current wind gust speed)